Time;durP1;ratioP1;P1;durP2;ratioP2;P2;SDS_P1;SDS_P2;PMS_P1;PMS_P2;Temp;Humidity;BMP_temperature;BMP_pressure;BME280_temperature;BME280_humidity;BME280_pressure;Samples;Min_cycle;Max_cycle;Signal;HPM_P1;HPM_P2
2022/01/06 00:00:44;;;;;;;9.65;4.78;;;1.10;99.90;;;1.57;100.00;97260.06;4935869;28;120184;-74
2022/01/06 00:03:13;;;;;;;9.82;4.78;;;1.10;99.90;;;1.58;100.00;97266.16;4940095;28;118730;-75
2022/01/06 00:05:41;;;;;;;7.57;4.43;;;1.10;99.90;;;1.60;100.00;97272.00;4942128;28;129909;-75
2022/01/06 00:08:12;;;;;;;7.40;4.25;;;1.10;99.90;;;1.58;100.00;97260.81;4941202;28;130647;-75
2022/01/06 00:10:40;;;;;;;7.88;4.20;;;1.10;99.90;;;1.56;100.00;97273.72;4941490;28;119162;-74
2022/01/06 00:13:15;;;;;;;5.57;2.90;;;1.10;99.90;;;1.63;100.00;97283.97;4942706;28;119448;-75
2022/01/06 00:16:00;;;;;;;5.90;2.95;;;1.10;99.90;;;1.55;100.00;97278.25;4940867;28;130300;-75
2022/01/06 00:23:04;;;;;;;6.03;3.15;;;1.10;99.90;;;1.49;100.00;97273.34;4941557;28;130399;-74
2022/01/06 00:24:16;;;;;;;6.53;3.22;;;1.10;99.90;;;1.33;100.00;97271.06;4942958;28;119473;-75
2022/01/06 00:26:45;;;;;;;7.10;3.15;;;1.10;99.90;;;1.32;100.00;97284.72;4941418;28;130103;-75
2022/01/06 00:29:14;;;;;;;4.63;2.88;;;1.10;99.90;;;1.30;100.00;97269.00;4941940;28;129572;-75
2022/01/06 00:31:42;;;;;;;4.85;2.85;;;1.10;99.90;;;1.30;100.00;97278.91;4940064;28;119378;-75
2022/01/06 00:34:11;;;;;;;5.82;3.17;;;1.10;99.90;;;1.28;100.00;97284.56;4942677;28;120177;-75
2022/01/06 00:36:41;;;;;;;5.55;3.53;;;1.10;99.90;;;1.27;100.00;97287.53;4944424;28;129881;-75
2022/01/06 00:39:12;;;;;;;5.95;3.50;;;1.00;99.90;;;1.23;100.00;97287.34;4941879;28;129931;-74
2022/01/06 00:41:42;;;;;;;6.68;3.65;;;1.00;99.90;;;1.14;100.00;97289.97;4941074;28;122378;-75
2022/01/06 00:44:10;;;;;;;6.93;3.70;;;1.00;99.90;;;1.13;100.00;97282.25;4942852;28;121800;-75
2022/01/06 00:46:39;;;;;;;7.78;3.40;;;1.00;99.90;;;1.18;100.00;97285.56;4922534;28;129627;-75
2022/01/06 00:49:08;;;;;;;8.60;4.05;;;1.00;99.90;;;1.15;100.00;97280.06;4923481;28;129952;-74
2022/01/06 00:51:36;;;;;;;6.63;3.47;;;0.90;99.90;;;1.19;100.00;97281.03;4920228;28;119939;-73
2022/01/06 00:54:06;;;;;;;8.45;3.65;;;1.00;99.90;;;1.24;100.00;97280.91;4940673;28;119713;-76
2022/01/06 00:56:36;;;;;;;8.20;3.70;;;1.00;99.90;;;1.20;100.00;97283.41;4922287;28;130009;-76
2022/01/06 00:59:06;;;;;;;6.20;3.72;;;1.00;99.90;;;1.23;100.00;97279.31;4923091;28;130353;-74
2022/01/06 01:01:36;;;;;;;8.13;5.18;;;1.00;99.90;;;1.20;100.00;97274.59;4923698;28;119678;-73
2022/01/06 01:04:06;;;;;;;7.75;4.50;;;0.90;99.90;;;1.14;100.00;97271.25;4921961;28;119764;-73
2022/01/06 01:06:34;;;;;;;8.30;4.40;;;1.00;99.90;;;1.10;100.00;97272.94;4957509;28;131657;-74
2022/01/06 01:09:03;;;;;;;10.32;5.22;;;1.00;99.90;;;1.09;100.00;97276.69;4925320;28;129982;-74
2022/01/06 01:11:31;;;;;;;8.43;4.68;;;0.90;99.90;;;1.06;100.00;97272.78;4925352;28;119655;-74
2022/01/06 01:14:17;;;;;;;11.73;6.43;;;0.90;99.90;;;0.96;100.00;97265.00;4925242;28;119667;-74
2022/01/06 01:16:54;;;;;;;8.88;5.15;;;0.80;99.90;;;0.80;100.00;97263.78;4918950;28;129975;-73
2022/01/06 01:19:24;;;;;;;10.57;6.05;;;0.60;99.90;;;0.65;100.00;97263.00;4924511;28;129661;-74
2022/01/06 01:21:53;;;;;;;11.77;6.15;;;0.50;99.90;;;0.62;100.00;97274.28;4925578;28;120081;-74
2022/01/06 01:24:24;;;;;;;10.15;5.93;;;0.40;99.90;;;0.61;100.00;97272.72;4925044;28;119732;-74
2022/01/06 01:26:59;;;;;;;16.05;6.80;;;0.50;99.90;;;0.54;100.00;97273.13;4925144;28;130205;-74
2022/01/06 01:29:30;;;;;;;10.77;6.05;;;0.50;99.90;;;0.51;100.00;97267.59;4941434;28;128951;-74
2022/01/06 01:32:00;;;;;;;14.90;6.40;;;0.40;99.90;;;0.40;100.00;97261.69;4926645;28;121874;-73
2022/01/06 01:34:28;;;;;;;12.38;5.82;;;0.30;99.90;;;0.29;100.00;97261.13;4926818;28;121973;-74
2022/01/06 01:36:57;;;;;;;11.23;6.00;;;0.20;99.90;;;0.20;100.00;97254.91;4926564;28;129585;-75
2022/01/06 01:39:28;;;;;;;11.90;5.90;;;0.10;99.90;;;0.07;100.00;97255.72;4926074;28;128561;-74
2022/01/06 01:41:57;;;;;;;10.57;6.55;;;0.00;99.90;;;0.04;100.00;97272.31;4927205;28;118703;-75
2022/01/06 01:44:27;;;;;;;14.52;7.65;;;0.00;99.90;;;0.14;100.00;97264.09;4926587;28;119241;-75
2022/01/06 01:47:02;;;;;;;13.65;6.68;;;0.00;99.90;;;0.14;100.00;97272.09;4943004;28;129163;-76
2022/01/06 01:49:45;;;;;;;14.80;7.95;;;0.10;99.90;;;0.29;100.00;97277.13;4926957;28;129047;-76
2022/01/06 01:52:20;;;;;;;14.40;7.13;;;0.20;99.90;;;0.37;100.00;97270.28;4925298;28;119929;-76
2022/01/06 01:54:48;;;;;;;15.85;7.00;;;0.30;99.90;;;0.48;100.00;97266.34;4925336;28;119585;-76
2022/01/06 01:57:17;;;;;;;15.82;7.28;;;0.40;99.90;;;0.60;100.00;97276.47;4923453;28;130202;-75
2022/01/06 01:59:46;;;;;;;14.95;7.25;;;0.40;99.90;;;0.70;100.00;97270.94;4918542;28;130288;-75
2022/01/06 02:02:14;;;;;;;13.35;7.63;;;0.40;99.90;;;0.74;100.00;97265.75;4925166;28;119779;-74
2022/01/06 02:04:44;;;;;;;16.35;6.95;;;0.40;99.90;;;0.79;100.00;97265.63;4925718;28;119306;-74
2022/01/06 02:07:17;;;;;;;12.15;6.78;;;0.40;99.90;;;0.88;100.00;97273.75;4927165;28;130080;-75
2022/01/06 02:09:45;;;;;;;12.77;6.82;;;0.50;99.90;;;0.90;100.00;97268.88;4917762;28;130368;-74
2022/01/06 02:12:26;;;;;;;13.63;7.10;;;0.50;99.90;;;0.95;100.00;97271.44;4924619;28;119689;-75
2022/01/06 02:14:55;;;;;;;16.52;6.70;;;0.50;99.90;;;0.92;100.00;97266.72;4959491;28;118527;-74
2022/01/06 02:17:24;;;;;;;12.57;7.07;;;0.50;99.90;;;0.88;100.00;97271.84;4933267;28;129136;-75
2022/01/06 02:19:57;;;;;;;16.55;6.35;;;0.50;99.90;;;0.77;100.00;97275.06;4925030;28;129949;-75
2022/01/06 02:22:27;;;;;;;11.55;5.78;;;0.50;99.90;;;0.67;100.00;97271.53;4923267;28;122028;-75
2022/01/06 02:24:56;;;;;;;11.23;5.60;;;0.40;99.90;;;0.67;100.00;97282.22;4926833;28;121868;-75
2022/01/06 02:27:24;;;;;;;11.57;6.38;;;0.50;99.90;;;0.59;100.00;97280.22;4923733;28;130085;-74
2022/01/06 02:29:53;;;;;;;11.68;5.63;;;0.50;99.90;;;0.54;100.00;97275.00;4924796;28;129651;-74
2022/01/06 02:32:22;;;;;;;12.50;6.22;;;0.50;99.90;;;0.47;100.00;97272.75;4923391;28;119874;-75
2022/01/06 02:34:57;;;;;;;11.23;5.88;;;0.50;98.90;;;0.46;100.00;97273.84;4926868;28;119524;-75
2022/01/06 02:37:26;;;;;;;16.20;7.40;;;0.50;97.70;;;0.54;100.00;97273.13;4958125;28;131004;-75
2022/01/06 02:39:54;;;;;;;12.77;6.97;;;0.50;97.30;;;0.49;100.00;97275.91;4924564;28;129868;-75
2022/01/06 02:42:23;;;;;;;14.05;7.18;;;0.50;96.40;;;0.47;100.00;97278.09;4958528;28;118766;-75
2022/01/06 02:44:52;;;;;;;12.82;7.18;;;0.50;95.40;;;0.35;100.00;97278.59;4924783;28;119127;-75
2022/01/06 02:47:20;;;;;;;12.93;7.20;;;0.50;95.30;;;0.40;100.00;97279.59;4936302;28;130012;-75
2022/01/06 02:49:49;;;;;;;11.15;6.47;;;0.50;93.90;;;0.47;100.00;97271.97;4928486;28;129339;-75
2022/01/06 02:52:19;;;;;;;15.15;8.10;;;0.50;93.70;;;0.52;100.00;97274.53;4942520;28;120365;-75
2022/01/06 02:54:51;;;;;;;14.02;7.20;;;0.50;93.60;;;0.56;100.00;97275.50;4958898;28;119786;-75
2022/01/06 02:57:20;;;;;;;14.82;7.97;;;0.50;93.70;;;0.60;100.00;97271.13;4942445;28;130743;-76
2022/01/06 02:59:50;;;;;;;14.90;7.47;;;0.50;93.50;;;0.61;100.00;97267.38;4942665;28;129616;-74
2022/01/06 03:02:19;;;;;;;14.00;7.35;;;0.50;93.60;;;0.64;100.00;97277.47;4942806;28;119755;-75
2022/01/06 03:04:48;;;;;;;13.55;8.15;;;0.50;93.40;;;0.62;100.00;97271.63;4943626;28;119129;-74
2022/01/06 03:07:26;;;;;;;15.65;7.45;;;0.50;93.80;;;0.52;100.00;97271.84;4941921;28;130518;-74
2022/01/06 03:09:56;;;;;;;15.57;7.90;;;0.50;93.70;;;0.65;100.00;97281.69;4937933;28;129653;-73
2022/01/06 03:12:29;;;;;;;15.20;7.78;;;0.50;93.80;;;0.76;100.00;97297.50;4941800;28;122080;-74
2022/01/06 03:14:57;;;;;;;16.20;8.00;;;0.60;94.10;;;0.71;100.00;97293.84;4946287;28;121677;-75
2022/01/06 03:17:26;;;;;;;15.93;8.18;;;0.60;94.10;;;0.80;100.00;97296.59;4960826;28;129026;-75
2022/01/06 03:19:55;;;;;;;15.20;8.25;;;0.60;94.20;;;0.83;100.00;97297.91;4961420;28;129712;-75
2022/01/06 03:22:25;;;;;;;14.43;7.50;;;0.60;94.00;;;0.79;100.00;97294.22;4943342;28;119606;-75
2022/01/06 03:24:53;;;;;;;13.68;7.55;;;0.60;94.20;;;0.85;100.00;97311.72;4943578;28;119826;-75
2022/01/06 03:27:25;;;;;;;15.20;8.40;;;0.70;93.70;;;0.84;100.00;97302.13;4912015;28;128860;-75
2022/01/06 03:29:54;;;;;;;13.60;8.13;;;0.70;93.10;;;0.78;100.00;97304.13;4928568;28;129545;-75
2022/01/06 03:32:25;;;;;;;15.30;8.45;;;0.70;92.50;;;0.79;100.00;97304.91;4942813;28;119763;-75
2022/01/06 03:34:53;;;;;;;13.52;8.02;;;0.70;92.70;;;0.82;100.00;97293.63;4944759;28;119618;-75
2022/01/06 03:37:24;;;;;;;17.08;9.43;;;0.70;92.90;;;0.84;100.00;97302.13;4943270;28;129915;-75
2022/01/06 03:39:53;;;;;;;17.33;8.80;;;0.70;92.50;;;0.80;100.00;97306.50;4943077;28;130059;-74
2022/01/06 03:42:24;;;;;;;17.20;8.95;;;0.70;92.20;;;0.78;100.00;97301.47;4942602;28;119862;-75
2022/01/06 03:44:52;;;;;;;15.88;9.50;;;0.70;91.80;;;0.75;100.00;97304.75;4942922;28;120042;-75
2022/01/06 03:47:21;;;;;;;19.67;9.88;;;0.70;91.70;;;0.83;100.00;97305.91;4943697;28;129921;-74
2022/01/06 03:49:50;;;;;;;16.67;8.98;;;0.80;91.90;;;0.84;100.00;97297.59;4927450;28;128799;-74
2022/01/06 03:52:18;;;;;;;16.70;9.25;;;0.70;91.70;;;0.83;100.00;97300.56;4941407;28;120252;-75
2022/01/06 03:54:48;;;;;;;14.90;9.13;;;0.80;92.90;;;0.85;100.00;97309.84;4940911;28;119015;-74
2022/01/06 03:57:17;;;;;;;18.75;9.90;;;0.80;93.80;;;0.89;100.00;97304.69;4936824;28;129809;-75
2022/01/06 03:59:46;;;;;;;16.63;9.25;;;0.80;93.90;;;1.00;100.00;97310.59;4924751;28;129649;-74
2022/01/06 04:02:14;;;;;;;20.45;10.48;;;0.80;93.60;;;0.97;100.00;97317.34;4939176;28;122237;-75
2022/01/06 04:04:43;;;;;;;20.77;10.82;;;0.80;94.10;;;0.94;100.00;97312.59;4935546;28;122127;-75
2022/01/06 04:07:11;;;;;;;21.08;10.43;;;0.90;94.30;;;0.94;100.00;97309.13;4940756;28;129979;-75
2022/01/06 04:09:40;;;;;;;20.77;9.95;;;0.90;94.90;;;0.98;100.00;97312.75;4926477;28;128648;-75
2022/01/06 04:12:11;;;;;;;19.17;10.15;;;0.80;94.40;;;1.03;100.00;97304.66;4943590;28;120172;-74
2022/01/06 04:14:42;;;;;;;18.20;10.13;;;0.90;94.40;;;0.91;100.00;97307.06;4939898;28;119782;-75
2022/01/06 04:17:11;;;;;;;25.70;10.52;;;0.90;94.70;;;0.98;100.00;97313.56;4924735;28;129814;-75
2022/01/06 04:19:40;;;;;;;20.50;11.18;;;1.00;94.70;;;1.00;100.00;97310.59;4942528;28;129897;-75
2022/01/06 04:22:08;;;;;;;21.23;11.45;;;0.90;94.60;;;0.92;100.00;97314.78;4942744;28;120051;-74
2022/01/06 04:24:37;;;;;;;19.25;11.13;;;0.90;94.80;;;0.98;100.00;97313.56;4939170;28;121440;-75
2022/01/06 04:27:06;;;;;;;22.20;11.73;;;0.90;95.00;;;1.10;100.00;97312.25;4938972;28;130400;-75
2022/01/06 04:29:40;;;;;;;28.88;11.88;;;0.90;95.30;;;0.96;100.00;97318.41;4944038;28;129047;-74
2022/01/06 04:32:08;;;;;;;21.23;11.20;;;0.90;94.80;;;0.97;100.00;97312.00;4941968;28;120057;-75
2022/01/06 04:34:37;;;;;;;22.05;12.32;;;0.90;94.80;;;0.94;100.00;97317.94;4926830;28;119362;-75
2022/01/06 04:37:08;;;;;;;24.00;11.77;;;0.90;95.70;;;0.98;100.00;97324.25;4942452;28;130975;-74
2022/01/06 04:39:36;;;;;;;19.58;11.57;;;0.90;96.20;;;1.04;100.00;97312.38;4941466;28;130208;-74
2022/01/06 04:42:05;;;;;;;23.10;12.68;;;0.90;96.60;;;1.00;100.00;97311.38;4945803;28;119548;-75
2022/01/06 04:44:35;;;;;;;25.83;13.95;;;1.00;97.20;;;1.02;100.00;97319.09;4945243;28;119523;-74
2022/01/06 04:47:05;;;;;;;24.90;13.88;;;1.00;97.70;;;1.07;100.00;97313.63;4924602;28;129716;-75
2022/01/06 04:49:33;;;;;;;22.27;13.15;;;1.00;98.80;;;1.15;100.00;97314.78;4946000;28;129405;-74
2022/01/06 04:52:02;;;;;;;22.33;13.40;;;1.00;99.90;;;1.11;100.00;97311.13;4944666;28;122232;-74
2022/01/06 04:54:30;;;;;;;28.73;14.52;;;0.90;99.90;;;1.04;100.00;97301.69;4946754;28;122132;-74
2022/01/06 04:57:02;;;;;;;24.73;13.45;;;0.90;99.90;;;1.12;100.00;97307.38;4940203;28;130511;-73
2022/01/06 04:59:30;;;;;;;29.38;14.63;;;0.90;99.90;;;1.10;100.00;97309.56;4943856;28;129594;-74
2022/01/06 05:02:00;;;;;;;27.67;14.30;;;1.00;99.90;;;1.07;100.00;97311.72;4944397;28;120200;-74
2022/01/06 05:04:29;;;;;;;27.92;14.77;;;1.00;99.90;;;1.00;100.00;97308.72;4945877;28;119846;-82
2022/01/06 05:06:58;;;;;;;28.88;15.45;;;1.00;99.90;;;1.06;100.00;97312.84;4959935;28;129351;-82
2022/01/06 05:09:27;;;;;;;23.77;13.52;;;1.00;99.90;;;1.14;100.00;97315.88;4944869;28;129915;-83
2022/01/06 05:11:56;;;;;;;23.50;13.85;;;1.10;99.90;;;1.14;100.00;97315.88;4947685;28;118786;-84
2022/01/06 05:14:24;;;;;;;28.27;14.27;;;1.10;99.90;;;1.20;100.00;97317.34;4947190;28;119361;-84
2022/01/06 05:16:56;;;;;;;24.88;14.00;;;1.10;99.90;;;1.17;100.00;97315.25;4942831;28;129764;-84
2022/01/06 05:19:26;;;;;;;28.60;14.43;;;1.10;99.90;;;0.99;100.00;97312.47;4944709;28;129054;-83
2022/01/06 05:21:55;;;;;;;28.73;15.50;;;1.10;99.90;;;1.07;100.00;97327.75;4944275;28;119649;-84
2022/01/06 05:24:24;;;;;;;27.27;16.08;;;1.10;99.90;;;1.18;100.00;97327.53;4945363;28;119194;-85
2022/01/06 05:26:56;;;;;;;29.20;16.05;;;1.10;99.90;;;1.19;100.00;97323.78;4963514;28;129203;-85
2022/01/06 05:29:26;;;;;;;32.00;14.85;;;1.10;99.90;;;1.07;100.00;97327.75;4962268;28;129077;-83
2022/01/06 05:31:55;;;;;;;32.63;16.20;;;1.10;99.30;;;1.03;100.00;97326.03;4961675;28;120070;-84
2022/01/06 05:34:25;;;;;;;31.45;15.20;;;1.10;99.30;;;1.09;100.00;97324.78;4947047;28;118995;-84
2022/01/06 05:36:54;;;;;;;33.58;16.60;;;1.10;99.20;;;1.19;100.00;97329.91;4944829;28;130536;-84
2022/01/06 05:39:23;;;;;;;29.40;16.45;;;1.10;99.40;;;1.10;100.00;97330.94;4962685;28;128739;-83
2022/01/06 05:41:52;;;;;;;33.05;15.52;;;1.20;99.20;;;1.24;100.00;97331.69;4946018;28;121513;-84
2022/01/06 05:44:25;;;;;;;29.45;15.23;;;1.20;99.10;;;1.27;100.00;97325.72;4947185;28;121583;-83
2022/01/06 05:46:54;;;;;;;31.75;16.40;;;1.20;98.70;;;1.17;100.00;97336.63;4946573;28;129304;-85
2022/01/06 05:49:23;;;;;;;35.88;17.52;;;1.20;98.20;;;1.19;100.00;97334.47;4944811;28;129576;-85
2022/01/06 05:51:53;;;;;;;28.27;15.80;;;1.20;97.90;;;1.21;100.00;97348.31;4945169;28;119353;-84
2022/01/06 05:54:30;;;;;;;28.55;15.20;;;1.20;97.50;;;1.20;100.00;97341.38;4944640;28;119543;-85
2022/01/06 05:57:02;;;;;;;39.25;16.38;;;1.20;97.30;;;1.26;100.00;97345.50;4954241;28;129452;-84
2022/01/06 05:59:32;;;;;;;28.13;15.48;;;1.20;97.10;;;1.25;100.00;97343.97;4946711;28;130071;-84
2022/01/06 06:02:02;;;;;;;29.08;16.00;;;1.20;96.90;;;1.30;100.00;97351.84;4956328;28;118834;-82
2022/01/06 06:04:31;;;;;;;31.50;16.40;;;1.20;96.80;;;1.27;100.00;97352.44;4959449;28;118294;-82
2022/01/06 06:07:01;;;;;;;32.88;17.08;;;1.20;96.60;;;1.30;100.00;97341.16;4944283;28;129702;-82
2022/01/06 06:09:30;;;;;;;30.98;15.95;;;1.20;96.90;;;1.31;100.00;97353.44;4945617;28;128652;-82
2022/01/06 06:11:58;;;;;;;30.23;15.73;;;1.20;96.70;;;1.28;100.00;97348.69;4946591;28;118487;-82
2022/01/06 06:14:27;;;;;;;27.88;15.57;;;1.20;96.00;;;1.18;100.00;97348.91;4946122;28;118531;-82
2022/01/06 06:16:56;;;;;;;35.38;17.02;;;1.20;95.50;;;1.22;100.00;97349.91;4953342;28;129394;-83
2022/01/06 06:19:27;;;;;;;28.70;17.13;;;1.20;95.00;;;1.16;100.00;97341.22;4941801;28;130470;-81
2022/01/06 06:21:56;;;;;;;33.97;17.98;;;1.20;94.80;;;1.22;100.00;97349.91;4946197;28;118679;-81
2022/01/06 06:24:25;;;;;;;28.48;16.73;;;1.30;94.90;;;1.36;100.00;97345.28;4943599;28;119885;-82
2022/01/06 06:26:54;;;;;;;30.00;16.27;;;1.30;94.90;;;1.32;100.00;97341.63;4944564;28;129371;-81
2022/01/06 06:29:24;;;;;;;31.50;15.90;;;1.30;93.50;;;1.36;100.00;97347.97;4945406;28;129504;-81
2022/01/06 06:31:52;;;;;;;29.85;16.25;;;1.30;93.50;;;1.41;100.00;97347.84;4943520;28;122129;-81
2022/01/06 06:34:20;;;;;;;33.55;17.63;;;1.30;93.60;;;1.36;100.00;97350.63;4945964;28;121914;-81
2022/01/06 06:36:51;;;;;;;30.38;17.67;;;1.30;93.00;;;1.30;100.00;97356.41;4945930;28;129441;-81
2022/01/06 06:39:20;;;;;;;33.22;18.05;;;1.30;92.70;;;1.35;100.00;97357.06;4945792;28;129139;-80
2022/01/06 06:41:58;;;;;;;35.67;17.27;;;1.30;92.80;;;1.25;100.00;97360.00;4946422;28;119152;-85
2022/01/06 06:44:30;;;;;;;30.70;17.75;;;1.30;93.50;;;1.34;100.00;97360.84;4945875;28;118531;-81
2022/01/06 06:47:00;;;;;;;31.10;16.95;;;1.30;93.50;;;1.32;100.00;97355.00;4945599;28;129457;-81
2022/01/06 06:49:29;;;;;;;31.70;17.23;;;1.30;93.90;;;1.38;100.00;97359.13;4946612;28;130377;-82
2022/01/06 06:52:00;;;;;;;30.05;17.70;;;1.30;94.00;;;1.35;100.00;97358.94;4955968;28;120185;-82
2022/01/06 06:54:28;;;;;;;30.23;17.10;;;1.30;93.90;;;1.38;100.00;97359.13;4943846;28;120250;-83
2022/01/06 06:56:58;;;;;;;31.58;18.45;;;1.30;94.30;;;1.33;100.00;97367.28;4942920;28;129815;-81
2022/01/06 06:59:27;;;;;;;30.33;17.65;;;1.30;94.80;;;1.37;100.00;97362.91;4943905;28;129942;-84
2022/01/06 07:01:56;;;;;;;26.77;16.00;;;1.30;94.90;;;1.32;100.00;97370.25;4944538;28;119431;-84
2022/01/06 07:04:24;;;;;;;27.85;15.50;;;1.30;95.30;;;1.39;100.00;97374.09;4960085;28;119163;-71
2022/01/06 07:06:58;;;;;;;27.48;16.75;;;1.30;95.80;;;1.49;100.00;97369.59;4943635;28;129629;-82
2022/01/06 07:09:27;;;;;;;31.65;16.50;;;1.30;95.90;;;1.56;100.00;97375.31;4943590;28;129633;-83
2022/01/06 07:12:00;;;;;;;28.15;16.23;;;1.30;95.90;;;1.53;100.00;97383.94;4929017;28;119098;-82
2022/01/06 07:14:29;;;;;;;25.17;15.77;;;1.40;95.90;;;1.54;100.00;97383.63;4962178;28;119205;-83
2022/01/06 07:16:58;;;;;;;35.80;17.90;;;1.40;96.50;;;1.41;100.00;97379.91;4942287;28;129280;-84
2022/01/06 07:19:35;;;;;;;30.83;17.20;;;1.30;96.80;;;1.42;100.00;97386.84;4927648;28;129369;-83
2022/01/06 07:22:04;;;;;;;29.25;15.88;;;1.30;97.50;;;1.47;100.00;97387.81;4939432;28;121847;-82
2022/01/06 07:24:37;;;;;;;28.55;15.85;;;1.30;97.20;;;1.43;100.00;97383.09;4942693;28;120736;-78
2022/01/06 07:27:12;;;;;;;31.17;17.15;;;1.30;97.60;;;1.35;100.00;97391.81;4941064;28;130496;-76
2022/01/06 07:29:41;;;;;;;27.83;16.15;;;1.30;97.50;;;1.38;100.00;97380.50;4941323;28;129644;-78
2022/01/06 07:32:12;;;;;;;27.33;16.27;;;1.30;96.10;;;1.44;100.00;97390.00;4942792;28;119101;-78
2022/01/06 07:34:41;;;;;;;23.52;15.32;;;1.40;95.60;;;1.61;100.00;97378.63;4941974;28;119308;-79
2022/01/06 07:37:09;;;;;;;29.52;17.35;;;1.50;94.30;;;1.55;100.00;97373.72;4940764;28;130390;-77
2022/01/06 07:39:39;;;;;;;25.73;15.63;;;1.50;93.00;;;1.64;100.00;97377.25;4942321;28;128651;-77
2022/01/06 07:42:22;;;;;;;22.27;13.93;;;1.50;92.40;;;1.77;99.81;97370.25;4941703;28;119536;-78
2022/01/06 07:44:50;;;;;;;25.50;15.27;;;1.50;91.30;;;1.85;99.28;97382.09;4945641;28;119347;-78
2022/01/06 07:47:19;;;;;;;28.20;17.13;;;1.60;88.10;;;1.87;98.97;97382.56;4942456;28;129694;-78
2022/01/06 07:49:48;;;;;;;25.67;15.63;;;1.60;83.10;;;1.92;98.83;97377.09;4940264;28;129346;-78
2022/01/06 07:52:17;;;;;;;24.95;15.43;;;1.60;83.00;;;1.90;98.63;97373.94;4942702;28;119851;-78
2022/01/06 07:54:46;;;;;;;26.40;15.50;;;1.60;80.20;;;1.74;98.98;97376.97;4944447;28;120898;-79
2022/01/06 07:57:17;;;;;;;30.60;16.65;;;1.60;76.90;;;1.87;99.12;97378.03;4944563;28;129139;-77
2022/01/06 07:59:47;;;;;;;26.92;15.98;;;1.60;77.20;;;1.93;98.46;97376.81;4944493;28;130206;-77
2022/01/06 08:02:18;;;;;;;26.27;15.43;;;1.70;74.90;;;1.90;97.81;97384.63;4942652;28;119593;-77
2022/01/06 08:04:50;;;;;;;27.35;15.10;;;1.70;71.20;;;1.80;97.91;97378.44;4942957;28;119440;-75
2022/01/06 08:07:18;;;;;;;29.10;16.08;;;1.70;66.80;;;1.78;98.04;97382.53;4941273;28;129854;-76
2022/01/06 08:09:47;;;;;;;32.17;15.82;;;1.60;66.40;;;1.80;97.82;97381.13;4944577;28;128733;-75
2022/01/06 08:12:17;;;;;;;24.75;15.05;;;1.70;66.70;;;1.73;97.92;97386.13;4942195;28;122852;-75
2022/01/06 08:14:45;;;;;;;23.83;14.40;;;1.70;64.00;;;1.78;97.72;97399.34;4936019;28;121930;-75
2022/01/06 08:17:14;;;;;;;25.85;15.52;;;1.80;62.50;;;1.87;97.68;97394.06;4945998;28;129652;-75
2022/01/06 08:19:43;;;;;;;23.50;15.13;;;1.80;64.00;;;1.96;97.51;97405.63;4948033;28;129685;-77
2022/01/06 08:22:12;;;;;;;21.08;14.48;;;1.80;62.40;;;2.13;96.50;97415.59;4961574;28;119572;-75
2022/01/06 08:24:46;;;;;;;21.90;14.55;;;1.80;61.60;;;2.01;96.46;97419.94;4947421;28;119105;-75
2022/01/06 08:27:19;;;;;;;23.90;14.00;;;1.80;59.40;;;1.91;96.66;97415.66;4945883;28;129884;-76
2022/01/06 08:29:48;;;;;;;25.38;14.43;;;1.80;60.50;;;2.05;96.64;97424.38;4945531;28;129691;-76
2022/01/06 08:32:23;;;;;;;26.25;14.68;;;1.80;61.60;;;2.14;96.43;97432.47;4947211;28;119490;-77
2022/01/06 08:34:51;;;;;;;20.05;12.90;;;1.80;61.80;;;2.07;94.92;97422.22;4942246;28;120157;-76
2022/01/06 08:37:20;;;;;;;22.17;13.07;;;1.80;57.00;;;1.89;95.77;97428.53;4946519;28;129975;-76
2022/01/06 08:39:51;;;;;;;21.52;12.93;;;1.80;55.00;;;1.90;95.79;97427.44;4945763;28;129987;-73
2022/01/06 08:42:21;;;;;;;21.45;13.32;;;1.80;54.60;;;1.92;95.99;97430.63;4946001;28;119570;-78
2022/01/06 08:44:52;;;;;;;22.20;12.88;;;1.70;54.30;;;1.96;95.45;97431.56;4955630;28;119221;-78
2022/01/06 08:47:20;;;;;;;22.25;12.98;;;1.80;53.30;;;2.05;95.08;97419.03;4946148;28;129374;-77
2022/01/06 08:49:49;;;;;;;25.20;13.18;;;1.80;53.10;;;2.14;94.60;97427.91;4960747;28;131029;-77
2022/01/06 08:52:19;;;;;;;19.35;12.13;;;1.90;52.80;;;2.29;93.24;97428.59;4943826;28;119585;-77
2022/01/06 08:54:48;;;;;;;19.17;12.23;;;1.90;48.30;;;2.33;93.45;97434.91;4946694;28;119036;-78
2022/01/06 08:57:18;;;;;;;19.23;12.57;;;1.90;47.90;;;2.28;92.88;97430.50;4942595;28;129995;-76
2022/01/06 08:59:48;;;;;;;20.55;12.00;;;2.00;46.00;;;2.08;92.80;97423.78;4945662;28;129716;-77
2022/01/06 09:02:17;;;;;;;20.55;12.88;;;1.90;42.40;;;2.09;93.50;97429.94;4958498;28;121475;-78
2022/01/06 09:04:45;;;;;;;21.75;12.25;;;1.90;42.30;;;2.21;93.35;97421.31;4939380;28;121075;-78
2022/01/06 09:07:14;;;;;;;20.75;12.85;;;2.00;42.90;;;2.31;92.27;97431.78;4943824;28;129695;-77
2022/01/06 09:09:45;;;;;;;20.70;12.70;;;2.00;39.70;;;2.47;91.76;97437.50;4946419;28;131181;-78
2022/01/06 09:12:17;;;;;;;21.52;12.32;;;2.10;39.30;;;2.46;90.60;97428.69;4941721;28;119913;-78
2022/01/06 09:14:48;;;;;;;18.05;11.32;;;2.10;36.30;;;2.49;90.71;97424.59;4944560;28;119076;-78
2022/01/06 09:17:18;;;;;;;18.00;10.98;;;2.10;36.40;;;2.59;90.46;97431.59;4942262;28;130271;-79
2022/01/06 09:19:48;;;;;;;18.67;12.40;;;2.10;37.30;;;2.58;89.82;97435.34;4944954;28;130031;-79
2022/01/06 09:22:17;;;;;;;17.95;11.02;;;2.10;33.40;;;2.37;90.44;97429.72;4949513;28;119203;-78
2022/01/06 09:24:48;;;;;;;19.13;11.57;;;2.10;32.90;;;2.31;90.76;97431.78;4940698;28;119662;-79
2022/01/06 09:27:16;;;;;;;18.10;12.50;;;2.00;32.80;;;2.19;91.48;97434.22;4944137;28;129869;-79
2022/01/06 09:29:45;;;;;;;21.27;12.48;;;1.90;37.00;;;2.22;92.49;97423.69;4944072;28;129799;-79
2022/01/06 09:32:17;;;;;;;19.38;12.02;;;1.90;39.70;;;2.16;92.17;97431.03;4946378;28;120090;-78
2022/01/06 09:34:47;;;;;;;19.05;12.02;;;2.00;38.60;;;2.18;91.60;97432.63;4939691;28;118001;-78
2022/01/06 09:37:22;;;;;;;19.55;11.48;;;2.00;36.20;;;2.08;91.93;97434.47;4945532;28;128914;-78
2022/01/06 09:39:53;;;;;;;20.80;12.48;;;2.00;35.50;;;2.29;91.77;97433.94;4943835;28;131029;-79
2022/01/06 09:42:22;;;;;;;20.70;11.63;;;2.10;35.70;;;2.32;91.44;97434.16;4943797;28;118918;-79
2022/01/06 09:44:59;;;;;;;18.98;11.52;;;2.00;34.80;;;2.08;92.21;97439.81;4943556;28;118979;-79
2022/01/06 09:47:30;;;;;;;17.50;11.32;;;2.00;35.00;;;2.24;91.40;97434.09;4896212;28;1412214;-79
2022/01/06 09:49:58;;;;;;;19.98;11.52;;;2.00;35.30;;;2.26;91.03;97439.91;4959541;28;128833;-78
2022/01/06 09:52:27;;;;;;;17.48;10.73;;;2.00;33.20;;;2.25;91.00;97441.03;4944094;28;120445;-78
2022/01/06 09:54:56;;;;;;;16.50;11.23;;;2.00;33.00;;;2.30;91.04;97441.66;4959671;28;122061;-79
2022/01/06 09:57:24;;;;;;;17.90;11.27;;;2.00;33.60;;;2.15;91.11;97448.22;4941610;28;129666;-78
2022/01/06 09:59:56;;;;;;;19.02;11.88;;;1.90;33.30;;;2.04;91.90;97446.91;4961347;28;128888;-77
2022/01/06 10:02:35;;;;;;;18.98;11.98;;;1.90;36.90;;;1.96;92.67;97455.63;4955921;28;118645;-78
2022/01/06 10:05:08;;;;;;;17.13;11.30;;;1.80;36.50;;;1.90;92.65;97451.50;4944965;28;120953;-78
2022/01/06 10:07:42;;;;;;;17.67;11.68;;;1.80;36.10;;;1.94;92.72;97444.47;4957335;28;130811;-78
2022/01/06 10:10:16;;;;;;;19.38;12.05;;;1.80;37.40;;;2.07;92.29;97448.97;4941163;28;129872;-79
2022/01/06 10:12:54;;;;;;;16.75;11.02;;;1.90;35.90;;;2.23;90.29;97445.88;4941521;28;119355;-74
2022/01/06 10:15:26;;;;;;;17.20;11.55;;;2.00;30.60;;;2.30;89.59;97449.69;4944529;28;120758;-75
2022/01/06 10:17:56;;;;;;;17.55;11.00;;;2.10;28.60;;;2.48;89.31;97445.22;4940335;28;130609;-75
2022/01/06 10:20:30;;;;;;;15.35;10.90;;;2.20;28.00;;;2.93;87.96;97451.53;4942375;28;130988;-75
2022/01/06 10:22:59;;;;;;;19.30;10.70;;;2.40;27.00;;;3.05;86.16;97444.50;4936466;28;119668;-74
2022/01/06 10:25:30;;;;;;;18.05;11.27;;;2.40;22.10;;;3.19;85.48;97438.97;4942275;28;119936;-75